createdAt,value
2023-01-22T00:00:40.249Z,87.68
2023-01-22T00:03:29.579Z,101.85
2023-01-22T00:06:18.913Z,92.43
2023-01-22T00:09:09.606Z,82.25
2023-01-22T00:11:59.248Z,83.30
2023-01-22T00:14:49.819Z,72.28
2023-01-22T00:17:39.048Z,91.43
2023-01-22T00:20:28.313Z,91.22
2023-01-22T00:23:17.882Z,79.47
2023-01-22T00:26:12.169Z,128.23
2023-01-22T00:29:03.047Z,127.93
2023-01-22T00:31:52.298Z,89.93
2023-01-22T00:34:41.632Z,94.15
2023-01-22T00:37:31.031Z,78.32
2023-01-22T00:40:20.837Z,96.32
2023-01-22T00:43:11.757Z,89.97
2023-01-22T00:46:01.179Z,92.30
2023-01-22T00:48:51.242Z,98.55
2023-01-22T00:51:40.628Z,73.63
2023-01-22T00:54:31.121Z,88.90
2023-01-22T00:57:22.033Z,78.85
2023-01-22T01:00:18.559Z,82.60
2023-01-22T01:03:28.404Z,74.55
2023-01-22T01:06:20.630Z,86.53
2023-01-22T01:09:10.190Z,83.30
2023-01-22T01:12:00.524Z,108.68
2023-01-22T01:14:50.760Z,88.63
2023-01-22T01:17:41.429Z,148.90
2023-01-22T01:20:30.709Z,84.07
2023-01-22T01:23:19.973Z,144.68
2023-01-22T01:26:12.013Z,96.63
2023-01-22T01:29:01.397Z,78.05
2023-01-22T01:31:53.436Z,83.00
2023-01-22T01:34:45.686Z,225.95
2023-01-22T01:37:35.030Z,79.87
2023-01-22T01:40:24.395Z,128.40
2023-01-22T01:43:17.107Z,106.22
2023-01-22T01:46:16.183Z,149.20
2023-01-22T01:49:06.707Z,109.88
2023-01-22T01:52:02.751Z,73.45
2023-01-22T01:54:57.966Z,102.78
2023-01-22T01:57:47.740Z,98.32
2023-01-22T02:00:40.735Z,81.45
2023-01-22T02:03:31.352Z,94.15
2023-01-22T02:06:21.750Z,103.35
2023-01-22T02:09:12.631Z,90.63
2023-01-22T02:12:01.937Z,139.70
2023-01-22T02:14:52.704Z,79.88
2023-01-22T02:17:42.555Z,91.97
2023-01-22T02:20:37.781Z,93.88
2023-01-22T02:23:32.824Z,75.60
2023-01-22T02:29:15.439Z,139.75
2023-01-22T02:32:05.309Z,104.65
2023-01-22T02:34:54.746Z,121.68
2023-01-22T02:37:45.616Z,117.72
2023-01-22T02:40:35.092Z,53.08
2023-01-22T02:43:24.890Z,26.08
2023-01-22T02:46:14.215Z,22.00
2023-01-22T02:49:03.557Z,25.85
2023-01-22T02:51:55.231Z,48.50
2023-01-22T02:54:47.456Z,28.50
2023-01-22T02:57:36.642Z,36.55
2023-01-22T03:00:26.098Z,31.33
2023-01-22T03:03:16.462Z,21.17
2023-01-22T03:06:07.257Z,23.05
2023-01-22T03:08:59.702Z,43.15
2023-01-22T03:11:50.754Z,113.82
2023-01-22T03:15:04.779Z,18.50
2023-01-22T03:18:10.961Z,24.13
2023-01-22T03:21:16.794Z,42.20
2023-01-22T03:24:06.891Z,48.83
2023-01-22T03:26:57.594Z,26.83
2023-01-22T03:29:47.118Z,31.10
2023-01-22T03:32:36.310Z,44.70
2023-01-22T03:35:25.603Z,30.88
2023-01-22T03:38:29.121Z,39.45
2023-01-22T03:41:20.020Z,18.42
2023-01-22T03:44:14.400Z,24.45
2023-01-22T03:47:05.053Z,20.88
2023-01-22T03:49:54.328Z,24.15
2023-01-22T03:52:43.948Z,22.85
2023-01-22T03:55:33.422Z,17.73
2023-01-22T03:58:22.619Z,17.90
2023-01-22T04:01:16.524Z,29.88
2023-01-22T04:04:06.685Z,22.15
2023-01-22T04:06:55.980Z,305.23
2023-01-22T04:09:45.552Z,43.83
2023-01-22T04:12:35.301Z,49.45
2023-01-22T04:15:24.602Z,62.22
2023-01-22T04:18:17.701Z,62.63
2023-01-22T04:21:39.325Z,16.33
2023-01-22T04:24:31.587Z,14.87
2023-01-22T04:27:22.109Z,48.05
2023-01-22T04:30:14.572Z,33.15
2023-01-22T04:33:04.182Z,64.00
2023-01-22T04:36:07.056Z,133.70
2023-01-22T04:38:56.435Z,28.55
2023-01-22T04:41:45.709Z,112.53
2023-01-22T04:44:35.933Z,119.95
2023-01-22T04:47:25.237Z,32.15
2023-01-22T04:50:19.060Z,49.55
2023-01-22T04:53:11.178Z,78.72
2023-01-22T04:56:00.936Z,22.25
2023-01-22T04:58:50.779Z,32.97
2023-01-22T05:01:40.168Z,21.17
2023-01-22T05:04:29.531Z,35.75
2023-01-22T05:07:18.842Z,24.85
2023-01-22T05:10:11.503Z,29.92
2023-01-22T05:13:05.343Z,21.98
2023-01-22T05:15:55.221Z,37.13
2023-01-22T05:18:46.955Z,38.58
2023-01-22T05:21:36.839Z,26.10
2023-01-22T05:24:28.050Z,23.08
2023-01-22T05:27:18.714Z,29.55
2023-01-22T05:30:21.789Z,39.25
2023-01-22T05:33:21.631Z,90.65
2023-01-22T05:36:12.801Z,62.03
2023-01-22T05:39:02.583Z,48.20
2023-01-22T05:41:53.520Z,81.15
2023-01-22T05:44:44.533Z,53.85
2023-01-22T05:47:35.221Z,41.45
2023-01-22T05:50:53.574Z,48.10
2023-01-22T05:53:43.030Z,52.72
2023-01-22T05:56:33.108Z,42.45
2023-01-22T05:59:22.585Z,39.40
2023-01-22T06:02:19.480Z,100.80
2023-01-22T06:05:10.102Z,41.75
2023-01-22T06:07:59.550Z,43.30
2023-01-22T06:10:59.576Z,37.15
2023-01-22T06:13:49.084Z,43.47
2023-01-22T06:16:40.845Z,56.70
2023-01-22T06:19:54.576Z,43.38
2023-01-22T06:22:43.816Z,46.88
2023-01-22T06:25:33.758Z,37.30
2023-01-22T06:28:36.311Z,37.00
2023-01-22T06:31:25.787Z,38.97
2023-01-22T06:34:15.293Z,38.50
2023-01-22T06:37:06.219Z,38.35
2023-01-22T06:39:59.825Z,115.90
2023-01-22T06:42:58.887Z,38.25
2023-01-22T06:45:48.292Z,38.55
2023-01-22T06:48:37.811Z,37.35
2023-01-22T06:51:27.197Z,45.88
2023-01-22T06:54:18.050Z,107.20
2023-01-22T06:57:07.552Z,34.85
2023-01-22T06:59:59.835Z,56.55
2023-01-22T07:02:49.150Z,58.78
2023-01-22T07:05:38.446Z,41.03
2023-01-22T07:08:29.184Z,43.83
2023-01-22T07:11:19.818Z,40.88
2023-01-22T07:14:09.035Z,44.00
2023-01-22T07:16:59.057Z,36.05
2023-01-22T07:19:48.372Z,42.47
2023-01-22T07:22:37.574Z,48.00
2023-01-22T07:25:27.977Z,38.08
2023-01-22T07:28:18.717Z,49.22
2023-01-22T07:31:11.602Z,58.72
2023-01-22T07:34:00.849Z,20.13
2023-01-22T07:36:50.358Z,30.65
2023-01-22T07:39:39.587Z,34.53
2023-01-22T07:42:28.911Z,78.95
2023-01-22T07:45:20.363Z,30.90
2023-01-22T07:48:10.959Z,31.95
2023-01-22T07:51:04.918Z,69.32
2023-01-22T07:53:54.197Z,35.83
2023-01-22T07:56:43.375Z,38.80
2023-01-22T07:59:32.758Z,37.72
2023-01-22T08:02:23.532Z,34.80
2023-01-22T08:05:14.973Z,29.73
2023-01-22T08:08:04.220Z,31.27
2023-01-22T08:10:53.489Z,31.35
2023-01-22T08:13:43.020Z,33.88
2023-01-22T08:16:32.304Z,57.45
2023-01-22T08:19:23.047Z,29.65
2023-01-22T08:22:12.340Z,34.63
2023-01-22T08:25:01.654Z,36.70
2023-01-22T08:27:50.812Z,30.85
2023-01-22T08:30:46.012Z,30.02
2023-01-22T08:33:36.369Z,26.95
2023-01-22T08:36:27.064Z,34.33
2023-01-22T08:39:16.322Z,25.65
2023-01-22T08:42:05.714Z,29.45
2023-01-22T08:44:55.022Z,30.67
2023-01-22T08:47:44.239Z,56.67
2023-01-22T08:50:33.430Z,27.58
2023-01-22T08:53:24.389Z,48.58
2023-01-22T08:56:13.659Z,24.95
2023-01-22T08:59:06.635Z,24.60
2023-01-22T09:01:56.143Z,31.40
2023-01-22T09:04:45.381Z,27.98
2023-01-22T09:07:34.711Z,30.52
2023-01-22T09:10:25.684Z,21.35
2023-01-22T09:13:15.025Z,25.40
2023-01-22T09:16:06.154Z,24.77
2023-01-22T09:18:55.900Z,22.00
2023-01-22T09:21:45.288Z,25.42
2023-01-22T09:24:34.866Z,27.02
2023-01-22T09:27:25.588Z,22.98
2023-01-22T09:30:15.649Z,25.63
2023-01-22T09:33:05.104Z,24.77
2023-01-22T09:35:54.421Z,25.80
2023-01-22T09:38:43.933Z,26.27
2023-01-22T09:41:35.871Z,23.83
2023-01-22T09:44:35.198Z,28.25
2023-01-22T09:47:34.445Z,26.73
2023-01-22T09:50:27.448Z,24.85
2023-01-22T09:53:21.202Z,22.52
2023-01-22T09:56:20.940Z,33.70
2023-01-22T09:59:18.606Z,23.58
2023-01-22T10:02:25.455Z,26.75
2023-01-22T10:05:32.100Z,25.02
2023-01-22T10:08:24.912Z,26.83
2023-01-22T10:11:14.328Z,27.73
2023-01-22T10:14:07.171Z,26.92
2023-01-22T10:16:59.567Z,29.90
2023-01-22T10:19:55.086Z,28.52
2023-01-22T10:22:44.300Z,35.25
2023-01-22T10:25:34.722Z,102.18
2023-01-22T10:28:28.458Z,64.75
2023-01-22T10:31:31.052Z,73.35
2023-01-22T10:34:30.360Z,85.95
2023-01-22T10:37:21.087Z,43.90
2023-01-22T10:40:26.693Z,51.22
2023-01-22T10:43:18.734Z,58.95
2023-01-22T10:46:20.720Z,48.55
2023-01-22T10:49:20.412Z,45.45
2023-01-22T10:52:24.868Z,44.72
2023-01-22T10:55:24.567Z,41.97
2023-01-22T10:58:18.563Z,79.97
2023-01-22T11:01:32.675Z,53.22
2023-01-22T11:04:25.507Z,42.80
2023-01-22T11:07:22.093Z,66.05
2023-01-22T11:10:25.393Z,42.05
2023-01-22T11:16:16.404Z,51.17
2023-01-22T11:19:13.246Z,40.75
2023-01-22T11:22:04.712Z,58.60
2023-01-22T11:24:54.176Z,43.88
2023-01-22T11:28:08.167Z,43.45
2023-01-22T11:31:40.947Z,46.65
2023-01-22T11:34:59.072Z,78.10
2023-01-22T11:38:06.503Z,38.83
2023-01-22T11:41:16.510Z,42.72
2023-01-22T11:44:52.799Z,37.50
2023-01-22T11:48:02.619Z,37.03
2023-01-22T11:51:01.399Z,38.10
2023-01-22T11:54:18.804Z,38.75
2023-01-22T11:57:18.250Z,46.55
2023-01-22T12:00:45.626Z,63.17
2023-01-22T12:04:10.162Z,55.55
2023-01-22T12:07:45.799Z,50.85
2023-01-22T12:11:08.375Z,41.58
2023-01-22T12:14:24.713Z,48.83
2023-01-22T12:17:30.553Z,53.25
2023-01-22T12:20:47.405Z,40.70
2023-01-22T12:23:45.530Z,42.22
2023-01-22T12:26:39.403Z,44.65
2023-01-22T12:29:34.409Z,46.83
2023-01-22T12:32:27.853Z,43.83
2023-01-22T12:35:19.920Z,43.92
2023-01-22T12:38:21.155Z,43.10
2023-01-22T12:41:24.448Z,41.13
2023-01-22T12:47:24.218Z,31.55
2023-01-22T12:50:24.127Z,38.60
2023-01-22T12:53:26.210Z,49.38
2023-01-22T12:56:15.389Z,42.25
2023-01-22T12:59:04.671Z,43.30
2023-01-22T13:02:01.535Z,46.10
2023-01-22T13:04:51.484Z,39.92
2023-01-22T13:07:43.055Z,45.17
2023-01-22T13:10:34.962Z,64.18
2023-01-22T13:13:30.788Z,49.38
2023-01-22T13:16:28.744Z,41.38
2023-01-22T13:19:24.557Z,51.03
2023-01-22T13:22:18.288Z,35.97
2023-01-22T13:25:24.283Z,42.95
2023-01-22T13:28:19.513Z,73.25
2023-01-22T13:31:17.134Z,37.38
2023-01-22T13:34:09.045Z,52.58
2023-01-22T13:36:59.429Z,40.22
2023-01-22T13:39:48.675Z,37.88
2023-01-22T13:42:42.174Z,37.42
2023-01-22T13:45:33.204Z,44.10
2023-01-22T13:48:27.275Z,38.58
2023-01-22T13:51:21.839Z,39.55
2023-01-22T13:54:20.581Z,38.58
2023-01-22T13:57:12.907Z,36.20
2023-01-22T14:00:05.572Z,40.88
2023-01-22T14:02:56.493Z,43.92
2023-01-22T14:05:45.676Z,43.05
2023-01-22T14:08:47.801Z,44.13
2023-01-22T14:11:41.209Z,45.50
2023-01-22T14:14:41.140Z,44.85
2023-01-22T14:17:34.520Z,42.72
2023-01-22T14:20:23.810Z,42.22
2023-01-22T14:23:13.606Z,78.20
2023-01-22T14:26:06.214Z,43.65
2023-01-22T14:28:55.580Z,46.95
2023-01-22T14:31:44.873Z,44.50
2023-01-22T14:34:35.547Z,46.72
2023-01-22T14:37:24.980Z,48.78
2023-01-22T14:40:17.720Z,52.78
2023-01-22T14:43:08.018Z,56.63
2023-01-22T14:45:57.282Z,48.95
2023-01-22T14:48:46.655Z,54.33
2023-01-22T14:51:37.185Z,55.03
2023-01-22T14:54:26.669Z,65.90
2023-01-22T14:57:15.971Z,53.15
2023-01-22T15:00:08.728Z,54.97
2023-01-22T15:02:58.385Z,47.53
2023-01-22T15:05:51.568Z,48.30
2023-01-22T15:11:31.280Z,61.38
2023-01-22T15:14:20.609Z,53.63
2023-01-22T15:17:10.314Z,53.50
2023-01-22T15:19:59.546Z,50.28
2023-01-22T15:22:49.635Z,53.22
2023-01-22T15:25:40.319Z,51.58
2023-01-22T15:28:30.411Z,52.47
2023-01-22T15:31:19.642Z,53.53
2023-01-22T15:34:08.986Z,54.15
2023-01-22T15:36:58.277Z,55.50
2023-01-22T15:39:47.600Z,52.55
2023-01-22T15:42:38.548Z,51.20
2023-01-22T15:45:27.866Z,54.97
2023-01-22T15:48:17.235Z,55.08
2023-01-22T15:51:11.287Z,53.20
2023-01-22T15:54:02.877Z,53.70
2023-01-22T15:56:52.435Z,53.58
2023-01-22T15:59:43.404Z,56.38
2023-01-22T16:02:32.748Z,51.45
2023-01-22T16:05:22.419Z,51.47
2023-01-22T16:08:11.744Z,50.35
2023-01-22T16:11:00.996Z,53.15
2023-01-22T16:13:50.571Z,50.85
2023-01-22T16:16:41.338Z,50.67
2023-01-22T16:19:30.484Z,52.45
2023-01-22T16:22:19.769Z,50.75
2023-01-22T16:25:10.036Z,51.08
2023-01-22T16:27:59.310Z,54.97
2023-01-22T16:30:48.594Z,49.72
2023-01-22T16:33:43.573Z,54.00
2023-01-22T16:36:33.498Z,48.33
2023-01-22T16:39:25.925Z,52.97
2023-01-22T16:42:15.169Z,49.38
2023-01-22T16:45:04.684Z,51.67
2023-01-22T16:47:54.030Z,54.58
2023-01-22T16:50:44.781Z,47.92
2023-01-22T16:53:35.053Z,52.20
2023-01-22T16:56:24.383Z,55.22
2023-01-22T16:59:13.684Z,72.75
2023-01-22T17:02:05.752Z,49.67
2023-01-22T17:04:57.222Z,47.58
2023-01-22T17:07:47.837Z,45.45
2023-01-22T17:10:37.556Z,44.75
2023-01-22T17:13:26.748Z,46.03
2023-01-22T17:16:16.973Z,53.38
2023-01-22T17:19:06.446Z,60.10
2023-01-22T17:21:58.981Z,77.05
2023-01-22T17:24:49.908Z,57.47
2023-01-22T17:27:39.955Z,57.00
2023-01-22T17:30:29.223Z,62.08
2023-01-22T17:33:20.956Z,54.10
2023-01-22T17:36:14.168Z,70.38
2023-01-22T17:39:03.747Z,65.20
2023-01-22T17:41:54.418Z,74.10
2023-01-22T17:44:43.760Z,70.15
2023-01-22T17:47:32.937Z,50.80
2023-01-22T17:50:22.208Z,62.70
2023-01-22T17:53:11.557Z,82.72
2023-01-22T17:56:10.411Z,55.70
2023-01-22T17:59:04.364Z,47.20
2023-01-22T18:01:53.778Z,56.45
2023-01-22T18:04:43.040Z,54.63
2023-01-22T18:07:32.264Z,63.10
2023-01-22T18:10:21.440Z,97.78
2023-01-22T18:13:10.690Z,88.20
2023-01-22T18:16:02.385Z,104.63
2023-01-22T18:18:54.555Z,100.13
2023-01-22T18:21:43.737Z,99.93
2023-01-22T18:24:34.408Z,113.15
2023-01-22T18:27:24.163Z,111.03
2023-01-22T18:30:15.516Z,108.70
2023-01-22T18:33:06.280Z,112.38
2023-01-22T18:35:55.527Z,126.85
2023-01-22T18:38:45.080Z,128.10
2023-01-22T18:41:34.847Z,116.03
2023-01-22T18:44:27.685Z,124.35
2023-01-22T18:47:16.956Z,125.22
2023-01-22T18:50:10.078Z,116.80
2023-01-22T18:55:50.270Z,111.90
2023-01-22T18:58:41.318Z,120.28
2023-01-22T19:01:33.547Z,123.68
2023-01-22T19:04:23.167Z,119.05
2023-01-22T19:07:13.862Z,116.68
2023-01-22T19:10:04.693Z,114.85
2023-01-22T19:12:53.897Z,92.15
2023-01-22T19:15:43.124Z,88.22
2023-01-22T19:18:32.378Z,82.20
2023-01-22T19:21:23.743Z,80.15
2023-01-22T19:24:15.937Z,89.90
2023-01-22T19:27:05.201Z,88.87
2023-01-22T19:29:55.206Z,93.57
2023-01-22T19:32:45.237Z,73.82
2023-01-22T19:35:34.438Z,78.13
2023-01-22T19:38:24.335Z,61.13
2023-01-22T19:41:15.306Z,68.95
2023-01-22T19:44:04.866Z,71.47
2023-01-22T19:46:54.131Z,74.97
2023-01-22T19:49:43.866Z,73.88
2023-01-22T19:52:33.313Z,70.68
2023-01-22T19:55:24.716Z,83.22
2023-01-22T19:58:15.407Z,84.50
2023-01-22T20:01:10.169Z,95.13
2023-01-22T20:03:59.545Z,95.45
2023-01-22T20:06:51.028Z,92.93
2023-01-22T20:09:40.239Z,95.40
2023-01-22T20:12:29.565Z,78.35
2023-01-22T20:15:20.827Z,69.32
2023-01-22T20:18:11.417Z,67.20
2023-01-22T20:21:02.870Z,76.60
2023-01-22T20:23:52.635Z,75.03
2023-01-22T20:26:42.137Z,75.57
2023-01-22T20:29:31.555Z,74.10
2023-01-22T20:32:22.743Z,87.60
2023-01-22T20:35:15.595Z,95.90
2023-01-22T20:38:04.888Z,92.90
2023-01-22T20:40:54.529Z,80.32
2023-01-22T20:43:45.091Z,72.45
2023-01-22T20:46:36.110Z,73.55
2023-01-22T20:49:27.181Z,73.28
2023-01-22T20:52:18.931Z,78.72
2023-01-22T20:55:10.693Z,77.95
2023-01-22T20:58:00.106Z,75.93
2023-01-22T21:00:49.397Z,82.05
2023-01-22T21:03:39.013Z,86.45
2023-01-22T21:06:31.804Z,96.35
2023-01-22T21:09:21.164Z,215.68
2023-01-22T21:12:13.170Z,234.57
2023-01-22T21:15:03.246Z,85.95
2023-01-22T21:17:52.517Z,77.25
2023-01-22T21:20:41.736Z,74.20
2023-01-22T21:23:32.436Z,60.35
2023-01-22T21:26:25.269Z,59.58
2023-01-22T21:29:17.182Z,60.72
2023-01-22T21:32:06.703Z,59.78
2023-01-22T21:34:56.178Z,64.35
2023-01-22T21:37:45.407Z,70.70
2023-01-22T21:40:35.978Z,70.90
2023-01-22T21:43:42.559Z,68.28
2023-01-22T21:46:35.509Z,66.18
2023-01-22T21:49:25.256Z,65.43
2023-01-22T21:52:14.454Z,70.28
2023-01-22T21:55:03.683Z,77.10
2023-01-22T21:57:54.277Z,71.57
2023-01-22T22:00:43.609Z,71.85
2023-01-22T22:03:35.013Z,74.03
2023-01-22T22:06:24.253Z,74.57
2023-01-22T22:09:16.252Z,82.35
2023-01-22T22:12:07.295Z,79.30
2023-01-22T22:14:58.098Z,90.93
2023-01-22T22:17:47.412Z,86.32
2023-01-22T22:20:37.420Z,96.72
2023-01-22T22:23:26.808Z,86.78
2023-01-22T22:26:16.123Z,81.47
2023-01-22T22:29:06.483Z,81.90
2023-01-22T22:31:57.110Z,88.30
2023-01-22T22:34:46.367Z,93.30
2023-01-22T22:37:35.640Z,93.57
2023-01-22T22:40:24.951Z,106.57
2023-01-22T22:43:15.823Z,150.13
2023-01-22T22:46:08.165Z,162.48
2023-01-22T22:49:01.419Z,131.68
2023-01-22T22:51:50.731Z,97.38
2023-01-22T22:54:40.411Z,90.70
2023-01-22T22:57:29.761Z,95.18
2023-01-22T23:00:20.676Z,97.13
2023-01-22T23:03:10.133Z,94.15
2023-01-22T23:06:08.295Z,92.18
2023-01-22T23:08:59.403Z,95.82
2023-01-22T23:11:51.753Z,179.73
2023-01-22T23:14:41.282Z,124.32
2023-01-22T23:17:30.653Z,105.57
2023-01-22T23:20:20.989Z,99.72
2023-01-22T23:23:11.666Z,97.43
2023-01-22T23:26:01.095Z,96.63
2023-01-22T23:28:52.182Z,105.38
2023-01-22T23:31:42.508Z,102.63
2023-01-22T23:34:31.873Z,109.80
2023-01-22T23:37:21.074Z,87.13
2023-01-22T23:40:14.074Z,89.10
2023-01-22T23:43:04.019Z,93.38
2023-01-22T23:45:53.653Z,98.32
2023-01-22T23:48:43.464Z,99.75
2023-01-22T23:51:33.236Z,97.82
2023-01-22T23:54:22.671Z,93.68
2023-01-22T23:57:13.470Z,93.22
